Time;durP1;ratioP1;P1;durP2;ratioP2;P2;SDS_P1;SDS_P2;PMS_P1;PMS_P2;Temp;Humidity;BMP_temperature;BMP_pressure;BME280_temperature;BME280_humidity;BME280_pressure;Samples;Min_cycle;Max_cycle;Signal;HPM_P1;HPM_P2
2022/06/22 00:00:00;;;;;;;15.63;7.00;;;;;;;;;;4992352;28;20378;-69
2022/06/22 00:02:34;;;;;;;9.93;6.50;;;;;;;;;;4992311;28;20037;-71
2022/06/22 00:05:14;;;;;;;14.75;6.78;;;;;;;;;;4992671;28;20034;-69
2022/06/22 00:07:48;;;;;;;13.27;7.10;;;;;;;;;;4992464;28;20034;-70
2022/06/22 00:10:17;;;;;;;13.68;6.35;;;;;;;;;;4992394;28;20042;-66
2022/06/22 00:12:48;;;;;;;12.25;6.35;;;;;;;;;;4992145;28;20030;-69
2022/06/22 00:15:46;;;;;;;18.77;7.28;;;;;;;;;;4992001;28;20110;-67
2022/06/22 00:18:30;;;;;;;20.45;8.02;;;;;;;;;;4992004;28;20043;-71
2022/06/22 00:21:00;;;;;;;23.33;7.70;;;;;;;;;;4992222;28;20045;-68
2022/06/22 00:23:42;;;;;;;19.35;7.57;;;;;;;;;;4991283;28;20043;-66
2022/06/22 00:26:22;;;;;;;12.02;6.85;;;;;;;;;;4992096;28;20060;-66
2022/06/22 00:28:54;;;;;;;11.65;6.72;;;;;;;;;;4986268;28;20065;-68
2022/06/22 00:31:59;;;;;;;11.95;6.82;;;;;;;;;;4976311;28;20122;-70
2022/06/22 00:34:32;;;;;;;12.18;6.75;;;;;;;;;;4973782;28;20075;-69
2022/06/22 00:36:57;;;;;;;12.70;7.17;;;;;;;;;;4988680;28;20038;-70
2022/06/22 00:39:25;;;;;;;9.73;6.63;;;;;;;;;;4991990;28;20065;-67
2022/06/22 00:42:14;;;;;;;8.68;6.32;;;;;;;;;;4992182;28;20057;-68
2022/06/22 00:45:06;;;;;;;8.30;6.00;;;;;;;;;;4992161;28;20042;-68
2022/06/22 00:48:08;;;;;;;9.32;6.35;;;;;;;;;;4993990;28;20619;-66
2022/06/22 00:50:40;;;;;;;9.75;5.93;;;;;;;;;;4998630;28;20112;-68
2022/06/22 00:53:18;;;;;;;10.32;6.70;;;;;;;;;;4994581;28;20034;-67
2022/06/22 00:55:58;;;;;;;13.25;6.63;;;;;;;;;;4996435;28;20489;-71
2022/06/22 00:58:31;;;;;;;13.23;5.93;;;;;;;;;;4995869;28;20452;-70
2022/06/22 01:01:19;;;;;;;11.85;6.72;;;;;;;;;;4996576;28;20049;-67
2022/06/22 01:04:06;;;;;;;9.40;6.40;;;;;;;;;;4996982;28;20101;-68
2022/06/22 01:06:50;;;;;;;10.77;6.22;;;;;;;;;;4996646;28;20062;-72
2022/06/22 01:09:31;;;;;;;9.90;6.20;;;;;;;;;;4996494;28;20027;-72
2022/06/22 01:12:25;;;;;;;9.52;6.03;;;;;;;;;;4996383;28;20085;-68
2022/06/22 01:15:12;;;;;;;8.77;6.30;;;;;;;;;;4996638;28;20393;-73
2022/06/22 01:17:48;;;;;;;11.43;6.38;;;;;;;;;;4996743;28;20054;-69
2022/06/22 01:20:20;;;;;;;14.73;6.15;;;;;;;;;;4996188;28;20477;-66
2022/06/22 01:23:23;;;;;;;10.95;6.60;;;;;;;;;;4996245;28;20449;-70
2022/06/22 01:25:54;;;;;;;11.43;6.72;;;;;;;;;;4996567;28;20084;-70
2022/06/22 01:28:21;;;;;;;11.57;6.20;;;;;;;;;;4996484;28;20039;-72
2022/06/22 01:31:04;;;;;;;11.50;6.35;;;;;;;;;;4996391;28;20445;-70
2022/06/22 01:33:34;;;;;;;15.38;7.07;;;;;;;;;;4994682;28;20137;-68
2022/06/22 01:36:09;;;;;;;8.73;5.88;;;;;;;;;;4994500;28;20433;-68
2022/06/22 01:38:39;;;;;;;9.27;6.78;;;;;;;;;;4981528;28;20030;-69
2022/06/22 01:41:23;;;;;;;11.02;6.50;;;;;;;;;;4975628;28;20497;-70
2022/06/22 01:44:02;;;;;;;8.00;5.97;;;;;;;;;;4975531;28;20031;-70
2022/06/22 01:47:19;;;;;;;9.15;6.13;;;;;;;;;;4975481;28;20027;-73
2022/06/22 01:50:06;;;;;;;6.80;5.80;;;;;;;;;;4975327;28;20067;-70
2022/06/22 01:52:40;;;;;;;11.57;6.32;;;;;;;;;;4975743;28;20070;-73
2022/06/22 01:55:33;;;;;;;14.23;6.10;;;;;;;;;;4975697;28;20397;-74
2022/06/22 01:58:08;;;;;;;10.00;6.43;;;;;;;;;;4983884;28;20030;-70
2022/06/22 02:00:34;;;;;;;13.98;6.95;;;;;;;;;;4993966;28;20505;-71
2022/06/22 02:03:29;;;;;;;8.13;6.10;;;;;;;;;;4994561;28;20065;-71
2022/06/22 02:09:02;;;;;;;9.90;6.70;;;;;;;;;;4994961;28;20217;-69
2022/06/22 02:11:35;;;;;;;12.25;6.38;;;;;;;;;;4993416;28;20030;-66
2022/06/22 02:14:08;;;;;;;12.20;6.82;;;;;;;;;;5007337;28;20031;-69
2022/06/22 02:16:45;;;;;;;11.13;6.80;;;;;;;;;;5010150;28;20037;-71
2022/06/22 02:19:14;;;;;;;12.57;8.27;;;;;;;;;;4993260;28;20113;-68
2022/06/22 02:21:44;;;;;;;13.40;7.05;;;;;;;;;;4994033;28;20037;-72
2022/06/22 02:24:16;;;;;;;10.63;6.80;;;;;;;;;;4994180;28;20077;-69
2022/06/22 02:26:53;;;;;;;16.90;6.22;;;;;;;;;;4993973;28;20034;-69
2022/06/22 02:29:25;;;;;;;13.48;6.00;;;;;;;;;;4994145;28;20110;-70
2022/06/22 02:31:53;;;;;;;10.98;6.40;;;;;;;;;;4993975;28;20050;-67
2022/06/22 02:34:19;;;;;;;10.05;5.90;;;;;;;;;;4993992;28;20066;-67
2022/06/22 02:36:48;;;;;;;19.15;7.03;;;;;;;;;;4994115;28;20085;-70
2022/06/22 02:39:17;;;;;;;12.75;7.38;;;;;;;;;;4993463;28;20037;-67
2022/06/22 02:44:35;;;;;;;10.77;6.70;;;;;;;;;;4994307;28;20054;-73
2022/06/22 02:47:16;;;;;;;13.57;6.30;;;;;;;;;;4992489;28;20034;-66
2022/06/22 02:49:48;;;;;;;17.75;7.03;;;;;;;;;;4993273;28;20477;-73
2022/06/22 02:52:15;;;;;;;13.00;7.07;;;;;;;;;;4993724;28;20134;-72
2022/06/22 02:54:55;;;;;;;12.30;6.55;;;;;;;;;;4998453;28;20055;-67
2022/06/22 02:57:43;;;;;;;10.93;6.38;;;;;;;;;;4992330;28;20084;-66
2022/06/22 03:00:09;;;;;;;17.45;7.20;;;;;;;;;;4993539;28;20034;-66
2022/06/22 03:02:36;;;;;;;12.38;6.85;;;;;;;;;;4993554;28;20543;-65
2022/06/22 03:05:05;;;;;;;11.50;6.57;;;;;;;;;;4996594;28;20504;-65
2022/06/22 03:07:35;;;;;;;17.13;7.22;;;;;;;;;;5013336;28;20507;-66
2022/06/22 03:10:02;;;;;;;15.40;6.50;;;;;;;;;;5008922;28;20030;-66
2022/06/22 03:12:28;;;;;;;14.57;7.18;;;;;;;;;;4993449;28;20037;-69
2022/06/22 03:15:03;;;;;;;14.55;6.47;;;;;;;;;;4992593;28;20070;-68
2022/06/22 03:17:33;;;;;;;12.25;6.68;;;;;;;;;;4973901;28;20053;-71
2022/06/22 03:20:08;;;;;;;12.20;6.93;;;;;;;;;;4985856;28;20097;-71
2022/06/22 03:22:43;;;;;;;12.35;6.20;;;;;;;;;;4991972;28;20034;-69
2022/06/22 03:25:34;;;;;;;13.93;7.22;;;;;;;;;;4992980;28;20106;-71
2022/06/22 03:28:12;;;;;;;12.40;6.40;;;;;;;;;;4992958;28;20035;-69
2022/06/22 03:30:54;;;;;;;11.40;6.88;;;;;;;;;;4992820;28;20473;-66
2022/06/22 03:33:28;;;;;;;17.13;6.72;;;;;;;;;;4991757;28;20092;-68
2022/06/22 03:36:01;;;;;;;10.20;6.65;;;;;;;;;;4992803;28;20117;-67
2022/06/22 03:38:34;;;;;;;15.18;7.18;;;;;;;;;;4992882;28;20425;-67
2022/06/22 03:41:05;;;;;;;11.85;6.55;;;;;;;;;;4991907;28;20077;-65
2022/06/22 03:43:36;;;;;;;14.35;8.13;;;;;;;;;;4991397;28;20038;-66
2022/06/22 03:46:15;;;;;;;26.83;12.85;;;;;;;;;;4994963;28;20027;-66
2022/06/22 03:48:52;;;;;;;19.15;8.43;;;;;;;;;;4992841;28;20026;-68
2022/06/22 03:51:21;;;;;;;16.90;7.70;;;;;;;;;;4987707;28;20062;-66
2022/06/22 03:54:04;;;;;;;19.15;7.93;;;;;;;;;;4992108;28;20014;-65
2022/06/22 03:56:38;;;;;;;25.30;7.80;;;;;;;;;;4992427;28;20034;-70
2022/06/22 03:59:05;;;;;;;20.92;7.90;;;;;;;;;;4992419;28;20386;-68
2022/06/22 04:01:31;;;;;;;16.05;7.53;;;;;;;;;;4992499;28;20084;-72
2022/06/22 04:03:57;;;;;;;15.32;7.40;;;;;;;;;;4992502;28;20413;-70
2022/06/22 04:06:48;;;;;;;25.75;8.05;;;;;;;;;;4992175;28;20066;-70
2022/06/22 04:09:20;;;;;;;25.25;8.38;;;;;;;;;;4991965;28;20031;-66
2022/06/22 04:12:07;;;;;;;20.67;9.02;;;;;;;;;;4992200;28;20077;-69
2022/06/22 04:14:47;;;;;;;24.75;8.43;;;;;;;;;;4992009;28;20544;-65
2022/06/22 04:17:34;;;;;;;24.08;9.25;;;;;;;;;;4985362;28;20038;-68
2022/06/22 04:20:19;;;;;;;20.48;8.20;;;;;;;;;;4988637;28;20073;-68
2022/06/22 04:22:50;;;;;;;19.35;8.40;;;;;;;;;;4992346;28;20085;-67
2022/06/22 04:25:27;;;;;;;13.35;8.75;;;;;;;;;;4992367;28;20404;-66
2022/06/22 04:27:56;;;;;;;22.63;8.88;;;;;;;;;;4996158;28;20465;-66
2022/06/22 04:30:30;;;;;;;19.83;8.82;;;;;;;;;;4994515;28;20018;-65
2022/06/22 04:33:05;;;;;;;24.92;8.95;;;;;;;;;;4993821;28;20034;-66
2022/06/22 04:35:31;;;;;;;20.23;9.48;;;;;;;;;;4995174;28;20530;-65
2022/06/22 04:38:22;;;;;;;19.80;8.30;;;;;;;;;;4996712;28;20113;-69
2022/06/22 04:41:14;;;;;;;22.50;8.40;;;;;;;;;;4999026;28;20042;-66
2022/06/22 04:43:40;;;;;;;18.35;8.40;;;;;;;;;;5003176;28;20481;-70
2022/06/22 04:46:13;;;;;;;18.15;9.05;;;;;;;;;;5016484;28;20064;-66
2022/06/22 04:48:48;;;;;;;21.83;8.35;;;;;;;;;;5010641;28;20038;-67
2022/06/22 04:51:21;;;;;;;14.68;7.63;;;;;;;;;;4994281;28;20034;-68
2022/06/22 04:54:02;;;;;;;16.95;8.90;;;;;;;;;;4996752;28;20030;-70
2022/06/22 04:56:37;;;;;;;21.27;8.98;;;;;;;;;;4996565;28;20381;-70
2022/06/22 04:59:07;;;;;;;14.95;8.07;;;;;;;;;;4995832;28;20449;-66
2022/06/22 05:01:51;;;;;;;18.23;8.25;;;;;;;;;;4995106;28;20528;-71
2022/06/22 05:04:31;;;;;;;17.40;7.70;;;;;;;;;;4996734;28;20042;-72
2022/06/22 05:07:02;;;;;;;14.98;8.15;;;;;;;;;;4996468;28;20030;-70
2022/06/22 05:10:03;;;;;;;17.67;7.75;;;;;;;;;;4995611;28;20389;-71
2022/06/22 05:12:40;;;;;;;12.82;7.35;;;;;;;;;;4993968;28;20038;-72
2022/06/22 05:15:10;;;;;;;20.75;7.75;;;;;;;;;;4995937;28;20377;-67
2022/06/22 05:17:37;;;;;;;22.98;8.52;;;;;;;;;;4995879;28;20109;-69
2022/06/22 05:20:45;;;;;;;16.73;8.05;;;;;;;;;;4995947;28;20473;-71
2022/06/22 05:23:12;;;;;;;17.02;9.02;;;;;;;;;;4995198;28;20597;-72
2022/06/22 05:25:42;;;;;;;15.05;7.43;;;;;;;;;;4995142;28;20469;-71
2022/06/22 05:28:16;;;;;;;18.17;8.10;;;;;;;;;;4995758;28;20447;-73
2022/06/22 05:31:02;;;;;;;19.42;8.05;;;;;;;;;;4995566;28;20037;-69
2022/06/22 05:33:29;;;;;;;15.45;9.02;;;;;;;;;;4995785;28;20061;-70
2022/06/22 05:36:01;;;;;;;21.60;8.93;;;;;;;;;;4995878;28;20048;-69
2022/06/22 05:38:27;;;;;;;19.65;8.25;;;;;;;;;;4995018;28;20034;-68
2022/06/22 05:40:53;;;;;;;17.02;8.25;;;;;;;;;;4994924;28;20481;-71
2022/06/22 05:43:20;;;;;;;24.83;7.88;;;;;;;;;;4995590;28;20053;-72
2022/06/22 05:45:52;;;;;;;18.63;8.35;;;;;;;;;;4995596;28;20394;-70
2022/06/22 05:48:23;;;;;;;17.83;8.23;;;;;;;;;;4995521;28;20046;-68
2022/06/22 05:51:06;;;;;;;13.77;7.95;;;;;;;;;;4992226;28;20038;-73
2022/06/22 05:53:35;;;;;;;16.95;7.57;;;;;;;;;;4995536;28;20034;-67
2022/06/22 05:56:23;;;;;;;17.13;7.65;;;;;;;;;;4996689;28;20068;-71
2022/06/22 05:59:00;;;;;;;16.23;7.82;;;;;;;;;;4995218;28;20042;-73
2022/06/22 06:01:44;;;;;;;14.35;7.18;;;;;;;;;;4989519;28;23899;-73
2022/06/22 06:04:21;;;;;;;11.73;7.60;;;;;;;;;;5000424;28;20042;-67
2022/06/22 06:06:48;;;;;;;11.82;7.20;;;;;;;;;;4994964;28;20049;-69
2022/06/22 06:09:21;;;;;;;16.00;7.65;;;;;;;;;;4995513;28;20030;-68
2022/06/22 06:12:13;;;;;;;;;;;;;;;;;;5000545;28;20031;-69
2022/06/22 06:14:43;;;;;;;17.83;7.20;;;;;;;;;;5010823;28;20055;-68
2022/06/22 06:17:29;;;;;;;15.60;7.50;;;;;;;;;;5014369;28;20489;-68
2022/06/22 06:19:58;;;;;;;11.52;7.15;;;;;;;;;;5012073;28;20393;-66
2022/06/22 06:22:26;;;;;;;10.30;6.88;;;;;;;;;;5009587;28;20061;-72
2022/06/22 06:27:49;;;;;;;12.07;6.28;;;;;;;;;;4994433;28;20040;-72
2022/06/22 06:30:46;;;;;;;20.25;6.40;;;;;;;;;;5024419;28;20029;-71
2022/06/22 06:33:20;;;;;;;12.48;5.85;;;;;;;;;;5013704;28;20030;-72
2022/06/22 06:35:52;;;;;;;8.70;6.32;;;;;;;;;;5013820;28;20030;-72
2022/06/22 06:38:27;;;;;;;11.73;6.53;;;;;;;;;;5013932;28;20042;-73
2022/06/22 06:41:07;;;;;;;9.13;5.85;;;;;;;;;;5013393;28;20057;-71
2022/06/22 06:43:45;;;;;;;7.65;5.25;;;;;;;;;;5009683;28;20564;-70
2022/06/22 06:46:20;;;;;;;12.00;5.93;;;;;;;;;;5012159;28;20038;-73
2022/06/22 06:49:17;;;;;;;10.40;5.80;;;;;;;;;;5011054;28;20034;-72
2022/06/22 06:51:52;;;;;;;11.68;6.22;;;;;;;;;;5010811;28;20507;-76
2022/06/22 06:54:25;;;;;;;9.90;5.88;;;;;;;;;;4994352;28;20045;-72
2022/06/22 06:56:53;;;;;;;8.07;5.80;;;;;;;;;;4995059;28;20048;-70
2022/06/22 06:59:25;;;;;;;10.93;5.80;;;;;;;;;;5009908;28;20030;-70
2022/06/22 07:01:51;;;;;;;8.27;5.75;;;;;;;;;;5023519;28;20061;-74
2022/06/22 07:04:31;;;;;;;9.43;5.28;;;;;;;;;;5013141;28;20064;-71
2022/06/22 07:07:25;;;;;;;8.93;5.32;;;;;;;;;;5013538;28;20100;-72
2022/06/22 07:09:51;;;;;;;;;;;;;;;;;;5013532;28;20559;-72
2022/06/22 07:12:26;;;;;;;10.70;5.07;;;;;;;;;;5013112;28;19919;-73
2022/06/22 07:14:52;;;;;;;11.75;5.53;;;;;;;;;;5013313;28;20064;-72
2022/06/22 07:17:21;;;;;;;7.13;4.82;;;;;;;;;;5013106;28;20032;-72
2022/06/22 07:19:52;;;;;;;11.20;5.63;;;;;;;;;;5012933;28;20038;-73
2022/06/22 07:22:26;;;;;;;7.35;5.82;;;;;;;;;;5012643;28;20042;-72
2022/06/22 07:25:18;;;;;;;13.05;5.32;;;;;;;;;;5013017;28;20399;-73
2022/06/22 07:27:49;;;;;;;9.27;5.22;;;;;;;;;;5011704;28;20087;-73
2022/06/22 07:30:31;;;;;;;7.88;5.10;;;;;;;;;;5012573;28;20030;-73
2022/06/22 07:33:21;;;;;;;8.23;4.70;;;;;;;;;;5012575;28;20037;-73
2022/06/22 07:36:01;;;;;;;7.97;4.75;;;;;;;;;;5013090;28;20096;-73
2022/06/22 07:38:49;;;;;;;6.82;5.07;;;;;;;;;;5012593;28;20479;-74
2022/06/22 07:41:18;;;;;;;11.00;4.78;;;;;;;;;;5012384;28;20041;-73
2022/06/22 07:43:48;;;;;;;13.07;4.65;;;;;;;;;;5012321;28;20408;-73
2022/06/22 07:46:25;;;;;;;9.77;5.22;;;;;;;;;;5012010;28;20531;-74
2022/06/22 07:48:57;;;;;;;10.07;5.20;;;;;;;;;;5012685;28;20041;-73
2022/06/22 07:51:28;;;;;;;6.13;4.85;;;;;;;;;;5012486;28;20048;-73
2022/06/22 07:54:01;;;;;;;7.80;4.95;;;;;;;;;;5012193;28;20041;-73
2022/06/22 07:56:38;;;;;;;7.57;5.07;;;;;;;;;;5011832;28;20057;-73
2022/06/22 07:59:12;;;;;;;12.23;5.95;;;;;;;;;;5012598;28;20036;-73
2022/06/22 08:01:41;;;;;;;14.68;5.68;;;;;;;;;;5011958;28;20389;-71
2022/06/22 08:04:21;;;;;;;9.05;4.85;;;;;;;;;;5012486;28;20026;-73
2022/06/22 08:06:55;;;;;;;6.40;4.60;;;;;;;;;;5012335;28;20037;-72
2022/06/22 08:09:34;;;;;;;10.63;5.50;;;;;;;;;;5012025;28;20477;-74
2022/06/22 08:12:06;;;;;;;11.52;5.10;;;;;;;;;;5011874;28;20480;-71
2022/06/22 08:14:38;;;;;;;10.73;5.63;;;;;;;;;;5012377;28;20495;-72
2022/06/22 08:17:12;;;;;;;14.88;5.80;;;;;;;;;;5011956;28;20412;-71
2022/06/22 08:19:38;;;;;;;9.13;5.07;;;;;;;;;;5011020;28;20196;-72
2022/06/22 08:22:06;;;;;;;8.55;5.10;;;;;;;;;;5012166;28;20030;-73
2022/06/22 08:24:37;;;;;;;8.48;5.72;;;;;;;;;;5012161;28;20084;-73
2022/06/22 08:27:04;;;;;;;10.00;4.68;;;;;;;;;;5023235;28;20038;-72
2022/06/22 08:29:32;;;;;;;8.32;4.75;;;;;;;;;;5012182;28;20022;-74
2022/06/22 08:32:21;;;;;;;9.77;5.22;;;;;;;;;;5011852;28;20055;-74
2022/06/22 08:34:53;;;;;;;9.13;5.10;;;;;;;;;;5010396;28;20046;-74
2022/06/22 08:37:29;;;;;;;;;;;;;;;;;;5010775;28;20037;-72
2022/06/22 08:40:00;;;;;;;8.57;5.40;;;;;;;;;;5010179;28;20306;-73
2022/06/22 08:42:52;;;;;;;20.00;6.07;;;;;;;;;;5012568;28;20049;-74
2022/06/22 08:45:47;;;;;;;7.50;4.87;;;;;;;;;;5020086;28;20111;-74
2022/06/22 08:48:22;;;;;;;9.80;4.90;;;;;;;;;;5005616;28;20547;-73
2022/06/22 08:50:57;;;;;;;11.20;5.47;;;;;;;;;;5001107;28;20104;-71
2022/06/22 08:53:51;;;;;;;7.32;5.57;;;;;;;;;;4991380;28;20045;-74
2022/06/22 08:56:38;;;;;;;14.18;5.45;;;;;;;;;;4994623;28;20103;-76
2022/06/22 08:59:27;;;;;;;16.42;5.10;;;;;;;;;;5001541;28;20041;-77
2022/06/22 09:02:33;;;;;;;9.57;5.32;;;;;;;;;;4992338;28;20038;-76
2022/06/22 09:05:34;;;;;;;9.63;5.68;;;;;;;;;;4993195;28;20114;-75
2022/06/22 09:08:05;;;;;;;7.63;5.32;;;;;;;;;;4997673;28;20052;-74
2022/06/22 09:10:50;;;;;;;8.30;4.93;;;;;;;;;;4999196;28;20539;-73
2022/06/22 09:13:41;;;;;;;11.10;5.10;;;;;;;;;;4998563;28;20477;-76
2022/06/22 09:16:28;;;;;;;9.57;5.22;;;;;;;;;;5003158;28;20042;-71
2022/06/22 09:19:00;;;;;;;8.60;4.65;;;;;;;;;;4999809;28;20480;-73
2022/06/22 09:21:47;;;;;;;13.55;5.22;;;;;;;;;;4996660;28;20035;-71
2022/06/22 09:24:19;;;;;;;10.43;4.80;;;;;;;;;;4998706;28;20121;-73
2022/06/22 09:27:12;;;;;;;9.02;5.05;;;;;;;;;;5008403;28;20030;-72
2022/06/22 09:30:15;;;;;;;9.07;4.65;;;;;;;;;;5011525;28;20050;-72
2022/06/22 09:32:44;;;;;;;;;;;;;;;;;;5009122;28;20481;-72
2022/06/22 09:35:42;;;;;;;10.43;4.68;;;;;;;;;;4993803;28;19924;-72
2022/06/22 09:38:17;;;;;;;8.32;4.90;;;;;;;;;;4993135;28;20141;-72
2022/06/22 09:40:49;;;;;;;8.05;4.47;;;;;;;;;;4993989;28;20034;-71
2022/06/22 09:43:42;;;;;;;8.88;5.47;;;;;;;;;;5001308;28;20062;-72
2022/06/22 09:46:20;;;;;;;9.27;4.82;;;;;;;;;;4997091;28;20047;-72
2022/06/22 09:48:49;;;;;;;8.13;4.60;;;;;;;;;;5001625;28;20367;-71
2022/06/22 09:51:33;;;;;;;6.80;4.78;;;;;;;;;;4993713;28;20030;-71
2022/06/22 09:57:36;;;;;;;9.63;4.18;;;;;;;;;;5012719;28;20065;-77
2022/06/22 10:00:18;;;;;;;8.82;4.97;;;;;;;;;;5004651;28;20491;-72
2022/06/22 10:02:59;;;;;;;10.57;5.80;;;;;;;;;;4994969;28;20133;-71
2022/06/22 10:05:46;;;;;;;8.75;4.90;;;;;;;;;;5004316;28;20038;-74
2022/06/22 10:08:30;;;;;;;13.48;5.35;;;;;;;;;;4998042;28;20116;-73
2022/06/22 10:11:33;;;;;;;8.65;4.88;;;;;;;;;;4994015;28;20042;-71
2022/06/22 10:14:17;;;;;;;7.85;4.97;;;;;;;;;;4994093;28;20069;-73
2022/06/22 10:17:03;;;;;;;13.70;5.63;;;;;;;;;;5000132;28;20121;-72
2022/06/22 10:19:50;;;;;;;12.57;5.07;;;;;;;;;;4993736;28;20076;-73
2022/06/22 10:22:41;;;;;;;7.50;5.40;;;;;;;;;;4993968;28;20140;-75
2022/06/22 10:25:09;;;;;;;10.27;4.90;;;;;;;;;;5003089;28;20129;-72
2022/06/22 10:28:18;;;;;;;9.40;5.10;;;;;;;;;;5010213;28;20136;-72
2022/06/22 10:30:53;;;;;;;7.65;4.65;;;;;;;;;;5001861;28;20129;-72
2022/06/22 10:33:35;;;;;;;13.05;4.95;;;;;;;;;;5010003;28;20053;-72
2022/06/22 10:36:22;;;;;;;10.02;4.47;;;;;;;;;;5017843;28;20144;-73
2022/06/22 10:39:15;;;;;;;6.85;4.45;;;;;;;;;;5032753;28;20448;-71
2022/06/22 10:45:09;;;;;;;8.75;4.43;;;;;;;;;;4992735;28;20112;-72
2022/06/22 10:48:09;;;;;;;12.93;4.68;;;;;;;;;;4998303;28;20031;-70
2022/06/22 10:51:08;;;;;;;10.02;4.45;;;;;;;;;;4999147;28;20434;-74
2022/06/22 10:54:11;;;;;;;7.72;5.18;;;;;;;;;;4997375;28;20033;-70
2022/06/22 10:57:01;;;;;;;12.98;5.13;;;;;;;;;;5007597;28;20096;-74
2022/06/22 10:59:58;;;;;;;9.75;5.00;;;;;;;;;;5015981;28;20033;-71
2022/06/22 11:02:43;;;;;;;13.13;5.30;;;;;;;;;;5010162;28;20045;-72
2022/06/22 11:05:39;;;;;;;6.75;4.30;;;;;;;;;;5007842;28;20030;-73
2022/06/22 11:08:08;;;;;;;9.40;4.50;;;;;;;;;;5009891;28;20052;-71
2022/06/22 11:10:47;;;;;;;8.40;4.05;;;;;;;;;;5012398;28;20467;-70
2022/06/22 11:13:37;;;;;;;8.60;4.35;;;;;;;;;;5011766;28;20087;-69
2022/06/22 11:16:21;;;;;;;8.55;4.90;;;;;;;;;;5010763;28;20045;-74
2022/06/22 11:19:11;;;;;;;8.35;4.13;;;;;;;;;;5012215;28;20370;-73
2022/06/22 11:21:42;;;;;;;6.88;4.25;;;;;;;;;;5011801;28;20145;-71
2022/06/22 11:24:35;;;;;;;10.15;4.45;;;;;;;;;;5012253;28;20109;-70
2022/06/22 11:30:51;;;;;;;7.63;4.20;;;;;;;;;;5011574;28;20045;-73
2022/06/22 11:33:38;;;;;;;8.27;4.53;;;;;;;;;;5011372;28;20050;-71
2022/06/22 11:36:26;;;;;;;9.65;4.38;;;;;;;;;;5009952;28;20029;-69
2022/06/22 11:39:29;;;;;;;10.57;5.03;;;;;;;;;;5011024;28;20500;-69
2022/06/22 11:42:06;;;;;;;11.70;4.60;;;;;;;;;;5010429;28;20467;-69
2022/06/22 11:48:13;;;;;;;7.38;3.75;;;;;;;;;;5012184;28;20040;-71
2022/06/22 11:51:23;;;;;;;7.82;4.25;;;;;;;;;;4993036;28;20136;-70
2022/06/22 11:54:23;;;;;;;11.52;4.13;;;;;;;;;;5004011;28;20032;-70
2022/06/22 11:57:08;;;;;;;9.05;3.83;;;;;;;;;;5017717;28;20030;-71
2022/06/22 12:00:01;;;;;;;10.63;3.83;;;;;;;;;;5012864;28;20084;-70
2022/06/22 12:02:43;;;;;;;9.63;4.15;;;;;;;;;;5012590;28;20439;-71
2022/06/22 12:05:24;;;;;;;;;;;;;;;;;;5012948;28;20037;-69
2022/06/22 12:08:11;;;;;;;11.15;3.65;;;;;;;;;;5012046;28;19963;-72
2022/06/22 12:10:40;;;;;;;10.52;4.28;;;;;;;;;;5012258;28;20041;-73
2022/06/22 12:13:15;;;;;;;5.70;3.60;;;;;;;;;;5010710;28;20021;-71
2022/06/22 12:16:26;;;;;;;13.77;4.18;;;;;;;;;;5012212;28;20030;-71
2022/06/22 12:19:01;;;;;;;15.98;4.10;;;;;;;;;;5012181;28;20484;-74
2022/06/22 12:21:47;;;;;;;13.05;4.30;;;;;;;;;;5012071;28;20037;-73
2022/06/22 12:24:15;;;;;;;11.02;4.00;;;;;;;;;;5012435;28;20037;-72
2022/06/22 12:26:51;;;;;;;6.30;3.38;;;;;;;;;;5026633;28;20026;-69
2022/06/22 12:29:44;;;;;;;10.63;3.47;;;;;;;;;;5032288;28;20045;-70
2022/06/22 12:32:33;;;;;;;9.95;3.63;;;;;;;;;;5027977;28;20381;-72
2022/06/22 12:35:16;;;;;;;6.35;3.55;;;;;;;;;;5012379;28;20045;-69
2022/06/22 12:37:55;;;;;;;9.60;3.97;;;;;;;;;;5012023;28;20034;-72
2022/06/22 12:40:27;;;;;;;11.85;3.88;;;;;;;;;;4991957;28;20030;-72
2022/06/22 12:43:05;;;;;;;8.63;3.88;;;;;;;;;;4990834;28;20152;-74
2022/06/22 12:45:34;;;;;;;10.05;3.65;;;;;;;;;;5007241;28;20050;-76
2022/06/22 12:48:06;;;;;;;11.30;3.40;;;;;;;;;;5013486;28;20022;-74
2022/06/22 12:51:11;;;;;;;8.10;4.00;;;;;;;;;;5014739;28;20037;-71
2022/06/22 12:53:54;;;;;;;11.30;4.63;;;;;;;;;;4995548;28;20086;-71
2022/06/22 12:56:39;;;;;;;9.90;3.75;;;;;;;;;;4996354;28;20423;-76
2022/06/22 12:59:30;;;;;;;8.30;3.63;;;;;;;;;;4995908;28;20031;-74
2022/06/22 13:01:56;;;;;;;11.70;4.10;;;;;;;;;;4995756;28;20465;-71
2022/06/22 13:04:28;;;;;;;13.50;3.75;;;;;;;;;;4996126;28;20105;-72
2022/06/22 13:06:55;;;;;;;;;;;;;;;;;;4996881;28;20113;-74
2022/06/22 13:09:22;;;;;;;12.30;4.47;;;;;;;;;;4996242;28;19918;-72
2022/06/22 13:11:49;;;;;;;8.63;3.75;;;;;;;;;;4996187;28;20066;-71
2022/06/22 13:14:38;;;;;;;10.90;4.22;;;;;;;;;;4996288;28;20030;-72
2022/06/22 13:17:20;;;;;;;12.32;3.50;;;;;;;;;;4996229;28;20565;-71
2022/06/22 13:20:11;;;;;;;12.30;3.88;;;;;;;;;;5013675;28;20030;-72
2022/06/22 13:22:50;;;;;;;6.95;3.67;;;;;;;;;;5015261;28;20042;-71
2022/06/22 13:25:37;;;;;;;7.57;3.78;;;;;;;;;;5015451;28;20082;-73
2022/06/22 13:28:16;;;;;;;8.43;3.70;;;;;;;;;;5015347;28;20065;-72
2022/06/22 13:30:49;;;;;;;13.27;4.05;;;;;;;;;;5015062;28;20129;-73
2022/06/22 13:33:40;;;;;;;5.95;3.20;;;;;;;;;;5015101;28;20473;-71
2022/06/22 13:36:33;;;;;;;7.18;3.50;;;;;;;;;;5015434;28;20368;-71
2022/06/22 13:38:59;;;;;;;7.53;3.85;;;;;;;;;;5015269;28;20044;-71
2022/06/22 13:41:55;;;;;;;7.15;3.40;;;;;;;;;;5015175;28;20669;-73
2022/06/22 13:45:05;;;;;;;8.23;3.25;;;;;;;;;;5013462;28;20168;-70
2022/06/22 13:47:46;;;;;;;9.00;2.85;;;;;;;;;;5018467;28;20081;-70
2022/06/22 13:50:24;;;;;;;8.45;3.00;;;;;;;;;;5015141;28;20490;-70
2022/06/22 13:52:56;;;;;;;6.57;2.80;;;;;;;;;;5015355;28;20037;-70
2022/06/22 13:56:16;;;;;;;14.70;3.13;;;;;;;;;;5015399;28;20396;-70
2022/06/22 13:58:49;;;;;;;7.97;2.88;;;;;;;;;;5031904;28;20041;-71
2022/06/22 14:01:33;;;;;;;9.60;2.85;;;;;;;;;;5017485;28;20549;-70
2022/06/22 14:04:08;;;;;;;13.95;3.35;;;;;;;;;;5014867;28;20034;-71
2022/06/22 14:06:41;;;;;;;12.32;3.28;;;;;;;;;;5014995;28;20086;-69
2022/06/22 14:09:29;;;;;;;8.82;2.88;;;;;;;;;;5014525;28;20125;-69
2022/06/22 14:12:17;;;;;;;15.23;3.85;;;;;;;;;;5014645;28;20053;-69
2022/06/22 14:15:14;;;;;;;12.20;3.38;;;;;;;;;;5014978;28;20030;-70
2022/06/22 14:17:52;;;;;;;8.50;3.28;;;;;;;;;;5014840;28;20034;-70
2022/06/22 14:20:39;;;;;;;12.60;3.20;;;;;;;;;;5014903;28;20155;-69
2022/06/22 14:23:10;;;;;;;8.50;3.38;;;;;;;;;;5014657;28;20033;-69
2022/06/22 14:26:16;;;;;;;10.70;3.25;;;;;;;;;;5014431;28;20041;-69
2022/06/22 14:28:56;;;;;;;9.43;3.28;;;;;;;;;;5014446;28;20034;-71
2022/06/22 14:31:30;;;;;;;8.07;3.28;;;;;;;;;;5014429;28;20113;-70
2022/06/22 14:34:04;;;;;;;9.63;3.25;;;;;;;;;;5014285;28;20038;-69
2022/06/22 14:36:39;;;;;;;12.30;3.33;;;;;;;;;;5014515;28;20030;-70
2022/06/22 14:39:16;;;;;;;11.88;3.03;;;;;;;;;;5014523;28;20405;-69
2022/06/22 14:41:53;;;;;;;9.90;3.22;;;;;;;;;;5014189;28;20122;-70
2022/06/22 14:44:34;;;;;;;14.38;3.63;;;;;;;;;;5014267;28;20038;-71
2022/06/22 14:47:23;;;;;;;10.13;3.28;;;;;;;;;;5014268;28;20065;-71
2022/06/22 14:50:31;;;;;;;11.23;3.03;;;;;;;;;;5014049;28;20061;-71
2022/06/22 14:53:29;;;;;;;9.90;2.90;;;;;;;;;;5023780;28;20381;-71
2022/06/22 14:56:02;;;;;;;10.10;3.40;;;;;;;;;;5014058;28;20421;-75
2022/06/22 14:58:35;;;;;;;10.45;3.08;;;;;;;;;;5014003;28;20493;-72
2022/06/22 15:01:07;;;;;;;10.00;3.55;;;;;;;;;;5013847;28;20030;-72
2022/06/22 15:04:05;;;;;;;6.30;2.72;;;;;;;;;;5013791;28;20030;-71
2022/06/22 15:06:37;;;;;;;9.40;2.65;;;;;;;;;;5022818;28;20457;-70
2022/06/22 15:09:12;;;;;;;8.80;3.10;;;;;;;;;;5012618;28;20485;-71
2022/06/22 15:14:47;;;;;;;12.13;3.50;;;;;;;;;;5013888;28;20452;-71
2022/06/22 15:17:32;;;;;;;10.18;2.67;;;;;;;;;;5013540;28;20030;-69
2022/06/22 15:20:30;;;;;;;11.93;3.90;;;;;;;;;;5013191;28;20026;-72
2022/06/22 15:23:02;;;;;;;15.70;3.13;;;;;;;;;;5012214;28;20094;-71
2022/06/22 15:26:07;;;;;;;8.60;2.67;;;;;;;;;;5013580;28;20042;-73
2022/06/22 15:29:01;;;;;;;11.52;3.08;;;;;;;;;;5013527;28;20057;-74
2022/06/22 15:31:32;;;;;;;5.63;2.28;;;;;;;;;;5016065;28;20056;-70
2022/06/22 15:34:24;;;;;;;10.05;3.17;;;;;;;;;;5013497;28;20046;-76
2022/06/22 15:37:20;;;;;;;12.10;3.60;;;;;;;;;;5013301;28;20030;-74
2022/06/22 15:40:39;;;;;;;9.07;3.00;;;;;;;;;;5020503;28;20075;-71
2022/06/22 15:43:20;;;;;;;9.82;2.88;;;;;;;;;;5030323;28;20044;-73
2022/06/22 15:46:16;;;;;;;14.60;3.60;;;;;;;;;;5030653;28;20042;-71
2022/06/22 15:48:47;;;;;;;8.73;3.53;;;;;;;;;;5017120;28;20042;-70
2022/06/22 15:51:40;;;;;;;14.35;3.20;;;;;;;;;;5011985;28;20041;-70
2022/06/22 15:54:21;;;;;;;11.55;3.20;;;;;;;;;;5013003;28;20112;-71
2022/06/22 15:56:49;;;;;;;11.07;3.20;;;;;;;;;;5013048;28;20033;-71
2022/06/22 15:59:30;;;;;;;9.25;3.00;;;;;;;;;;5012718;28;20112;-70
2022/06/22 16:02:18;;;;;;;8.45;3.30;;;;;;;;;;5012845;28;20036;-71
2022/06/22 16:04:57;;;;;;;9.95;3.60;;;;;;;;;;5012707;28;20069;-70
2022/06/22 16:07:26;;;;;;;12.43;3.65;;;;;;;;;;5012689;28;20087;-71
2022/06/22 16:10:02;;;;;;;10.48;3.00;;;;;;;;;;5012475;28;20087;-71
2022/06/22 16:15:45;;;;;;;10.70;3.60;;;;;;;;;;5012759;28;20064;-70
2022/06/22 16:18:44;;;;;;;8.88;3.17;;;;;;;;;;5012372;28;20040;-73